createdAt,value
2023-01-17T00:02:16.048Z,2.16
2023-01-17T00:05:01.260Z,2.20
2023-01-17T00:07:46.477Z,2.22
2023-01-17T00:10:20.408Z,2.21
2023-01-17T00:12:51.806Z,2.29
2023-01-17T00:15:19.978Z,2.22
2023-01-17T00:17:47.119Z,2.22
2023-01-17T00:20:32.780Z,2.23
2023-01-17T00:23:17.729Z,2.23
2023-01-17T00:26:02.779Z,2.31
2023-01-17T00:28:30.364Z,2.24
2023-01-17T00:30:56.896Z,2.26
2023-01-17T00:33:23.552Z,2.28
2023-01-17T00:35:52.186Z,2.26
2023-01-17T00:38:22.719Z,2.28
2023-01-17T00:40:49.449Z,2.31
2023-01-17T00:43:38.720Z,2.25
2023-01-17T00:46:24.155Z,2.20
2023-01-17T00:49:09.020Z,2.33
2023-01-17T00:51:54.087Z,2.20
2023-01-17T00:54:39.252Z,2.11
2023-01-17T00:57:24.603Z,2.14
2023-01-17T01:00:09.774Z,2.22
2023-01-17T01:02:54.899Z,2.09
2023-01-17T01:05:40.054Z,2.07
2023-01-17T01:08:41.543Z,2.09
2023-01-17T01:11:28.080Z,1.95
2023-01-17T01:14:13.797Z,2.01
2023-01-17T01:16:59.065Z,2.09
2023-01-17T01:19:44.217Z,1.92
2023-01-17T01:22:29.300Z,1.98
2023-01-17T01:25:14.381Z,1.93
2023-01-17T01:27:59.265Z,1.80
2023-01-17T01:30:44.181Z,1.87
2023-01-17T01:33:20.253Z,1.86
2023-01-17T01:35:54.148Z,1.81
2023-01-17T01:38:22.405Z,1.80
2023-01-17T01:40:53.213Z,1.82
2023-01-17T01:43:22.025Z,1.85
2023-01-17T01:45:52.417Z,1.89
2023-01-17T01:48:39.343Z,1.88
2023-01-17T01:51:11.392Z,1.94
2023-01-17T01:53:40.006Z,1.96
2023-01-17T01:56:07.472Z,2.01
2023-01-17T01:58:34.089Z,2.01
2023-01-17T02:01:00.786Z,2.05
2023-01-17T02:03:29.404Z,2.05
2023-01-17T02:05:56.420Z,2.08
2023-01-17T02:08:23.090Z,2.02
2023-01-17T02:10:49.566Z,2.03
2023-01-17T02:13:16.930Z,2.09
2023-01-17T02:16:16.194Z,2.09
2023-01-17T02:18:55.597Z,2.02
2023-01-17T02:21:31.441Z,2.13
2023-01-17T02:24:13.098Z,2.09
2023-01-17T02:27:03.573Z,2.11
2023-01-17T02:30:10.655Z,2.08
2023-01-17T02:32:55.899Z,2.08
2023-01-17T02:35:44.483Z,2.16
2023-01-17T02:38:33.964Z,2.16
2023-01-17T02:41:07.616Z,2.25
2023-01-17T02:43:34.175Z,2.19
2023-01-17T02:46:01.040Z,2.14
2023-01-17T02:48:28.648Z,2.19
2023-01-17T02:51:16.445Z,2.15
2023-01-17T02:53:47.355Z,2.19
2023-01-17T02:56:36.531Z,2.20
2023-01-17T02:59:37.988Z,2.22
2023-01-17T03:02:17.248Z,2.16
2023-01-17T03:04:48.254Z,2.18
2023-01-17T03:07:17.516Z,2.17
2023-01-17T03:09:45.836Z,2.07
2023-01-17T03:12:12.628Z,2.11
2023-01-17T03:14:39.109Z,2.06
2023-01-17T03:17:05.583Z,2.00
2023-01-17T03:19:32.088Z,2.07
2023-01-17T03:21:58.577Z,1.98
2023-01-17T03:24:25.055Z,2.03
2023-01-17T03:26:51.533Z,1.90
2023-01-17T03:29:18.058Z,1.94
2023-01-17T03:31:44.601Z,1.95
2023-01-17T03:34:11.090Z,1.93
2023-01-17T03:36:37.572Z,1.92
2023-01-17T03:39:04.054Z,1.86
2023-01-17T03:41:30.536Z,1.89
2023-01-17T03:43:57.796Z,1.81
2023-01-17T03:46:25.817Z,1.85
2023-01-17T03:48:53.053Z,1.87
2023-01-17T03:51:20.067Z,1.81
2023-01-17T03:53:47.497Z,1.85
2023-01-17T03:56:14.301Z,1.91
2023-01-17T03:58:40.775Z,1.88
2023-01-17T04:01:08.834Z,1.85
2023-01-17T04:03:35.412Z,1.86
2023-01-17T04:06:01.891Z,1.86
2023-01-17T04:08:29.327Z,1.86
2023-01-17T04:10:55.860Z,1.79
2023-01-17T04:13:22.343Z,1.85
2023-01-17T04:15:50.017Z,1.87
2023-01-17T04:18:20.265Z,1.78
2023-01-17T04:20:46.605Z,1.79
2023-01-17T04:23:13.082Z,1.86
2023-01-17T04:25:39.622Z,1.77
2023-01-17T04:28:06.343Z,1.70
2023-01-17T04:30:33.177Z,1.70
2023-01-17T04:32:59.653Z,1.72
2023-01-17T04:35:26.135Z,1.69
2023-01-17T04:37:52.639Z,1.71
2023-01-17T04:40:19.143Z,1.62
2023-01-17T04:42:45.780Z,1.64
2023-01-17T04:45:12.393Z,1.59
2023-01-17T04:47:38.864Z,1.54
2023-01-17T04:50:06.393Z,1.57
2023-01-17T04:52:32.877Z,1.59
2023-01-17T04:54:59.373Z,1.46
2023-01-17T04:57:25.852Z,1.47
2023-01-17T04:59:53.571Z,1.35
2023-01-17T05:02:20.288Z,1.26
2023-01-17T05:04:46.795Z,1.21
2023-01-17T05:07:13.302Z,1.22
2023-01-17T05:09:39.787Z,1.04
2023-01-17T05:12:06.328Z,1.10
2023-01-17T05:14:34.292Z,1.02
2023-01-17T05:17:02.941Z,0.93
2023-01-17T05:19:29.437Z,0.92
2023-01-17T05:21:55.911Z,0.84
2023-01-17T05:24:22.381Z,0.72
2023-01-17T05:26:54.614Z,0.67
2023-01-17T05:29:21.538Z,0.71
2023-01-17T05:31:48.045Z,0.58
2023-01-17T05:34:14.648Z,0.56
2023-01-17T05:36:41.249Z,0.57
2023-01-17T05:39:07.795Z,0.51
2023-01-17T05:41:34.255Z,0.57
2023-01-17T05:44:00.716Z,0.52
2023-01-17T05:46:27.255Z,0.51
2023-01-17T05:48:53.722Z,0.61
2023-01-17T05:51:20.231Z,0.63
2023-01-17T05:53:46.691Z,0.54
2023-01-17T05:56:13.200Z,0.55
2023-01-17T05:58:40.054Z,0.55
2023-01-17T06:01:06.595Z,0.63
2023-01-17T06:03:33.391Z,0.58
2023-01-17T06:05:59.853Z,0.62
2023-01-17T06:08:26.345Z,0.58
2023-01-17T06:10:52.864Z,0.55
2023-01-17T06:13:21.949Z,0.57
2023-01-17T06:15:48.517Z,0.50
2023-01-17T06:18:16.083Z,0.58
2023-01-17T06:20:42.626Z,0.54
2023-01-17T06:23:11.980Z,0.52
2023-01-17T06:25:43.650Z,0.53
2023-01-17T06:28:10.399Z,0.50
2023-01-17T06:30:36.873Z,0.46
2023-01-17T06:33:03.780Z,0.51
2023-01-17T06:35:30.350Z,0.45
2023-01-17T06:37:58.200Z,0.52
2023-01-17T06:40:25.279Z,0.48
2023-01-17T06:42:51.742Z,0.52
2023-01-17T06:45:18.672Z,0.40
2023-01-17T06:47:45.190Z,0.45
2023-01-17T06:50:13.650Z,0.47
2023-01-17T06:52:40.628Z,0.47
2023-01-17T06:55:07.997Z,0.51
2023-01-17T06:57:34.588Z,0.47
2023-01-17T07:00:01.227Z,0.45
2023-01-17T07:02:27.769Z,0.39
2023-01-17T07:04:54.219Z,0.31
2023-01-17T07:07:20.703Z,0.45
2023-01-17T07:09:47.231Z,0.46
2023-01-17T07:12:13.855Z,0.33
2023-01-17T07:14:40.317Z,0.42
2023-01-17T07:17:06.827Z,0.42
2023-01-17T07:19:33.334Z,0.40
2023-01-17T07:21:59.810Z,0.49
2023-01-17T07:24:26.290Z,0.38
2023-01-17T07:26:52.768Z,0.40
2023-01-17T07:29:19.258Z,0.38
2023-01-17T07:31:45.743Z,0.37
2023-01-17T07:34:12.216Z,0.46
2023-01-17T07:36:38.972Z,0.39
2023-01-17T07:39:06.386Z,0.39
2023-01-17T07:41:34.565Z,0.38
2023-01-17T07:44:01.106Z,0.42
2023-01-17T07:46:27.609Z,0.33
2023-01-17T07:48:54.086Z,0.39
2023-01-17T07:51:23.149Z,0.50
2023-01-17T07:53:49.614Z,0.49
2023-01-17T07:56:16.101Z,0.39
2023-01-17T07:58:42.914Z,0.37
2023-01-17T08:01:11.625Z,0.40
2023-01-17T08:03:41.032Z,0.38
2023-01-17T08:06:17.668Z,0.44
2023-01-17T08:08:44.338Z,0.49
2023-01-17T08:11:10.819Z,0.43
2023-01-17T08:13:37.298Z,0.43
2023-01-17T08:16:04.066Z,0.53
2023-01-17T08:18:30.956Z,0.49
2023-01-17T08:20:57.426Z,0.41
2023-01-17T08:23:23.916Z,0.45
2023-01-17T08:25:50.374Z,0.49
2023-01-17T08:28:16.869Z,0.53
2023-01-17T08:30:43.359Z,0.47
2023-01-17T08:33:09.849Z,0.44
2023-01-17T08:35:36.499Z,0.48
2023-01-17T08:38:04.858Z,0.50
2023-01-17T08:40:32.697Z,0.43
2023-01-17T08:43:00.222Z,0.51
2023-01-17T08:45:27.422Z,0.59
2023-01-17T08:47:53.962Z,0.55
2023-01-17T08:50:20.747Z,0.61
2023-01-17T08:52:50.359Z,0.68
2023-01-17T08:55:17.007Z,0.71
2023-01-17T08:57:43.497Z,0.57
2023-01-17T09:00:10.455Z,0.50
2023-01-17T09:02:37.007Z,0.53
2023-01-17T09:05:03.509Z,0.60
2023-01-17T09:07:29.993Z,0.58
2023-01-17T09:09:56.475Z,0.80
2023-01-17T09:12:23.004Z,0.78
2023-01-17T09:14:49.625Z,0.91
2023-01-17T09:17:16.096Z,0.97
2023-01-17T09:19:47.255Z,1.04
2023-01-17T09:22:13.782Z,1.18
2023-01-17T09:24:40.251Z,1.17
2023-01-17T09:27:06.745Z,1.02
2023-01-17T09:29:33.218Z,1.21
2023-01-17T09:32:00.836Z,1.32
2023-01-17T09:34:27.316Z,1.30
2023-01-17T09:36:53.858Z,1.14
2023-01-17T09:39:20.334Z,1.09
2023-01-17T09:42:04.589Z,1.14
2023-01-17T09:44:42.433Z,1.20
2023-01-17T09:47:24.707Z,1.13
2023-01-17T09:49:51.242Z,1.12
2023-01-17T09:52:19.367Z,0.92
2023-01-17T09:54:47.646Z,0.81
2023-01-17T09:57:35.981Z,1.12
2023-01-17T10:00:13.103Z,1.10
2023-01-17T10:03:02.353Z,0.89
2023-01-17T10:05:32.785Z,1.06
2023-01-17T10:08:05.572Z,1.11
2023-01-17T10:11:06.072Z,1.28
2023-01-17T10:13:51.230Z,1.34
2023-01-17T10:16:43.059Z,1.13
2023-01-17T10:19:11.437Z,1.33
2023-01-17T10:22:02.272Z,1.16
2023-01-17T10:24:34.550Z,1.33
2023-01-17T10:27:01.036Z,1.46
2023-01-17T10:29:29.974Z,1.38
2023-01-17T10:31:59.905Z,1.39
2023-01-17T10:34:36.858Z,1.26
2023-01-17T10:37:11.858Z,1.11
2023-01-17T10:39:39.198Z,0.93
2023-01-17T10:42:37.911Z,1.00
2023-01-17T10:45:07.586Z,0.99
2023-01-17T10:47:36.673Z,1.00
2023-01-17T10:50:05.124Z,1.02
2023-01-17T10:52:55.583Z,1.02
2023-01-17T10:55:34.212Z,0.95
2023-01-17T10:58:01.456Z,1.04
2023-01-17T11:00:46.606Z,1.04
2023-01-17T11:03:14.663Z,1.13
2023-01-17T11:05:42.933Z,1.09
2023-01-17T11:08:11.156Z,1.09
2023-01-17T11:10:40.164Z,1.04
2023-01-17T11:13:36.064Z,1.01
2023-01-17T11:16:09.333Z,1.17
2023-01-17T11:18:39.349Z,1.16
2023-01-17T11:21:11.274Z,1.19
2023-01-17T11:23:38.728Z,1.18
2023-01-17T11:26:07.474Z,1.19
2023-01-17T11:28:35.129Z,1.23
2023-01-17T11:31:03.609Z,1.22
2023-01-17T11:33:34.248Z,1.22
2023-01-17T11:36:00.725Z,1.14
2023-01-17T11:38:27.387Z,1.26
2023-01-17T11:41:13.801Z,1.35
2023-01-17T11:43:57.281Z,1.18
2023-01-17T11:46:24.084Z,1.42
2023-01-17T11:48:56.327Z,1.65
2023-01-17T11:51:32.559Z,1.80
2023-01-17T11:54:19.906Z,1.69
2023-01-17T11:56:46.551Z,1.50
2023-01-17T11:59:31.538Z,1.56
2023-01-17T12:02:31.834Z,1.53
2023-01-17T12:05:01.303Z,1.54
2023-01-17T12:07:38.011Z,1.42
2023-01-17T12:10:22.398Z,1.45
2023-01-17T12:13:25.931Z,1.36
2023-01-17T12:16:32.739Z,1.28
2023-01-17T12:19:12.676Z,1.23
2023-01-17T12:22:01.456Z,1.28
2023-01-17T12:24:52.324Z,1.17
2023-01-17T12:27:28.951Z,1.12
2023-01-17T12:30:03.143Z,1.32
2023-01-17T12:32:54.219Z,1.82
2023-01-17T12:35:50.560Z,2.32
2023-01-17T12:38:32.200Z,2.33
2023-01-17T12:41:07.893Z,2.31
2023-01-17T12:43:37.248Z,2.34
2023-01-17T12:46:20.686Z,2.17
2023-01-17T12:49:22.233Z,2.00
2023-01-17T12:51:50.180Z,1.90
2023-01-17T12:54:24.238Z,1.90
2023-01-17T12:57:04.918Z,2.03
2023-01-17T12:59:52.253Z,2.27
2023-01-17T13:02:31.519Z,2.29
2023-01-17T13:05:02.989Z,2.43
2023-01-17T13:07:52.672Z,2.12
2023-01-17T13:10:32.059Z,1.86
2023-01-17T13:13:02.995Z,1.70
2023-01-17T13:15:35.154Z,1.79
2023-01-17T13:18:15.336Z,1.51
2023-01-17T13:20:49.019Z,1.56
2023-01-17T13:23:37.677Z,1.68
2023-01-17T13:26:04.212Z,1.86
2023-01-17T13:28:42.783Z,1.86
2023-01-17T13:31:28.789Z,1.94
2023-01-17T13:34:16.349Z,1.88
2023-01-17T13:36:59.497Z,1.84
2023-01-17T13:39:33.291Z,1.79
2023-01-17T13:42:17.051Z,1.87
2023-01-17T13:44:43.520Z,1.90
2023-01-17T13:47:19.174Z,1.95
2023-01-17T13:49:50.574Z,2.05
2023-01-17T13:52:19.896Z,2.02
2023-01-17T13:54:56.567Z,2.03
2023-01-17T13:57:22.876Z,1.98
2023-01-17T13:59:49.652Z,2.03
2023-01-17T14:02:35.301Z,2.11
2023-01-17T14:05:23.821Z,2.04
2023-01-17T14:08:01.237Z,2.04
2023-01-17T14:11:09.845Z,2.17
2023-01-17T14:13:39.532Z,2.08
2023-01-17T14:16:29.573Z,2.06
2023-01-17T14:18:56.111Z,2.11
2023-01-17T14:21:26.528Z,2.08
2023-01-17T14:24:13.324Z,1.80
2023-01-17T14:26:44.563Z,1.78
2023-01-17T14:29:49.446Z,1.78
2023-01-17T14:32:20.901Z,1.79
2023-01-17T14:34:48.983Z,1.76
2023-01-17T14:37:38.247Z,1.73
2023-01-17T14:40:19.263Z,1.74
2023-01-17T14:42:45.855Z,1.57
2023-01-17T14:45:15.114Z,1.50
2023-01-17T14:47:43.296Z,1.28
2023-01-17T14:50:24.199Z,1.38
2023-01-17T14:53:12.562Z,1.43
2023-01-17T14:55:39.336Z,1.37
2023-01-17T14:58:05.800Z,1.33
2023-01-17T15:00:35.944Z,1.15
2023-01-17T15:03:02.321Z,0.93
2023-01-17T15:05:28.986Z,0.95
2023-01-17T15:07:56.496Z,0.83
2023-01-17T15:10:32.258Z,0.85
2023-01-17T15:13:05.077Z,0.75
2023-01-17T15:15:35.143Z,0.64
2023-01-17T15:18:29.366Z,0.48
2023-01-17T15:21:01.113Z,0.61
2023-01-17T15:23:34.315Z,0.36
2023-01-17T15:26:01.092Z,0.24
2023-01-17T15:28:28.153Z,0.22
2023-01-17T15:31:09.128Z,0.19
2023-01-17T15:33:40.579Z,0.09
2023-01-17T15:36:17.448Z,0.05
2023-01-17T15:38:50.051Z,0.20
2023-01-17T15:41:16.757Z,0.34
2023-01-17T15:43:43.423Z,0.08
2023-01-17T15:46:32.919Z,-0.08
2023-01-17T15:49:07.537Z,-0.16
2023-01-17T15:51:38.635Z,-0.08
2023-01-17T15:54:34.411Z,0.02
2023-01-17T15:57:02.805Z,0.02
2023-01-17T15:59:36.372Z,0.03
2023-01-17T16:02:02.901Z,-0.03
2023-01-17T16:04:33.529Z,-0.02
2023-01-17T16:07:20.366Z,0.06
2023-01-17T16:09:46.907Z,-0.09
2023-01-17T16:12:13.365Z,-0.11
2023-01-17T16:14:59.193Z,-0.19
2023-01-17T16:17:28.481Z,-0.16
2023-01-17T16:19:55.664Z,-0.36
2023-01-17T16:22:22.135Z,-0.52
2023-01-17T16:24:48.617Z,-0.55
2023-01-17T16:27:15.386Z,-0.61
2023-01-17T16:29:42.119Z,-0.49
2023-01-17T16:32:08.787Z,-0.47
2023-01-17T16:34:35.740Z,-0.49
2023-01-17T16:37:03.845Z,-0.52
2023-01-17T16:39:30.612Z,-0.50
2023-01-17T16:42:01.633Z,-0.62
2023-01-17T16:44:29.430Z,-0.56
2023-01-17T16:46:59.069Z,-0.64
2023-01-17T16:49:25.575Z,-0.74
2023-01-17T16:51:52.036Z,-0.72
2023-01-17T16:54:18.516Z,-0.70
2023-01-17T16:56:45.007Z,-0.98
2023-01-17T16:59:11.479Z,-1.02
2023-01-17T17:01:38.015Z,-1.06
2023-01-17T17:04:04.660Z,-0.97
2023-01-17T17:06:31.618Z,-0.90
2023-01-17T17:09:01.282Z,-0.99
2023-01-17T17:11:27.735Z,-1.00
2023-01-17T17:13:54.196Z,-1.03
2023-01-17T17:16:26.494Z,-0.92
2023-01-17T17:18:58.063Z,-1.00
2023-01-17T17:21:24.636Z,-0.92
2023-01-17T17:23:58.569Z,-0.96
2023-01-17T17:26:34.338Z,-1.01
2023-01-17T17:29:01.026Z,-1.14
2023-01-17T17:31:27.566Z,-1.07
2023-01-17T17:34:00.436Z,-1.04
2023-01-17T17:36:26.934Z,-1.13
2023-01-17T17:38:57.069Z,-1.13
2023-01-17T17:41:24.149Z,-1.17
2023-01-17T17:43:52.122Z,-1.16
2023-01-17T17:46:20.675Z,-1.20
2023-01-17T17:48:47.329Z,-1.21
2023-01-17T17:51:49.370Z,-1.39
2023-01-17T17:54:18.968Z,-1.48
2023-01-17T17:56:47.333Z,-1.35
2023-01-17T17:59:18.101Z,-1.28
2023-01-17T18:01:45.262Z,-1.32
2023-01-17T18:04:14.869Z,-1.27
2023-01-17T18:06:41.714Z,-1.28
2023-01-17T18:09:08.897Z,-1.41
2023-01-17T18:11:35.679Z,-1.38
2023-01-17T18:14:02.822Z,-1.62
2023-01-17T18:16:30.986Z,-1.51
2023-01-17T18:18:57.848Z,-1.47
2023-01-17T18:21:29.032Z,-1.36
2023-01-17T18:23:58.684Z,-1.48
2023-01-17T18:26:30.885Z,-1.55
2023-01-17T18:28:57.886Z,-1.75
2023-01-17T18:31:25.400Z,-1.72
2023-01-17T18:33:52.160Z,-1.66
2023-01-17T18:36:18.656Z,-1.74
2023-01-17T18:38:46.474Z,-1.49
2023-01-17T18:41:14.687Z,-1.55
2023-01-17T18:43:41.243Z,-1.63
2023-01-17T18:46:07.925Z,-1.52
2023-01-17T18:48:34.503Z,-1.77
2023-01-17T18:51:06.188Z,-1.72
2023-01-17T18:53:33.554Z,-1.70
2023-01-17T18:56:01.291Z,-1.82
2023-01-17T18:58:28.700Z,-1.70
2023-01-17T19:00:55.324Z,-1.76
2023-01-17T19:03:26.252Z,-1.74
2023-01-17T19:05:52.730Z,-1.76
2023-01-17T19:08:19.191Z,-1.61
2023-01-17T19:10:45.844Z,-1.69
2023-01-17T19:13:12.368Z,-1.71
2023-01-17T19:15:38.844Z,-1.69
2023-01-17T19:18:05.686Z,-1.54
2023-01-17T19:20:32.226Z,-1.58
2023-01-17T19:22:58.694Z,-1.62
2023-01-17T19:25:25.640Z,-1.73
2023-01-17T19:27:52.848Z,-1.88
2023-01-17T19:30:20.075Z,-1.78
2023-01-17T19:32:49.063Z,-1.80
2023-01-17T19:35:16.000Z,-1.67
2023-01-17T19:37:49.913Z,-1.65
2023-01-17T19:40:17.717Z,-1.59
2023-01-17T19:42:44.185Z,-1.60
2023-01-17T19:45:12.178Z,-1.59
2023-01-17T19:47:39.442Z,-1.56
2023-01-17T19:50:08.353Z,-1.67
2023-01-17T19:52:35.560Z,-1.70
2023-01-17T19:55:02.557Z,-1.84
2023-01-17T19:57:34.836Z,-1.88
2023-01-17T20:00:02.042Z,-1.77
2023-01-17T20:02:28.815Z,-1.68
2023-01-17T20:04:55.341Z,-1.72
2023-01-17T20:07:21.808Z,-1.92
2023-01-17T20:09:48.283Z,-1.83
2023-01-17T20:12:14.752Z,-1.76
2023-01-17T20:14:41.224Z,-1.76
2023-01-17T20:17:07.727Z,-1.71
2023-01-17T20:19:34.179Z,-1.88
2023-01-17T20:22:00.678Z,-1.73
2023-01-17T20:24:27.225Z,-1.69
2023-01-17T20:26:53.692Z,-1.79
2023-01-17T20:29:20.176Z,-2.06
2023-01-17T20:31:46.892Z,-1.98
2023-01-17T20:34:13.647Z,-1.97
2023-01-17T20:36:40.454Z,-1.87
2023-01-17T20:39:07.528Z,-1.86
2023-01-17T20:41:34.919Z,-1.86
2023-01-17T20:44:01.914Z,-1.73
2023-01-17T20:46:40.983Z,-1.73
2023-01-17T20:49:10.162Z,-1.82
2023-01-17T20:51:40.043Z,-1.79
2023-01-17T20:54:07.379Z,-1.84
2023-01-17T20:56:37.753Z,-1.80
2023-01-17T20:59:08.571Z,-1.74
2023-01-17T21:01:38.364Z,-1.74
2023-01-17T21:04:05.548Z,-1.82
2023-01-17T21:06:32.332Z,-1.88
2023-01-17T21:08:59.791Z,-1.93
2023-01-17T21:11:27.673Z,-1.83
2023-01-17T21:13:54.191Z,-1.88
2023-01-17T21:16:22.761Z,-1.84
2023-01-17T21:18:50.113Z,-1.80
2023-01-17T21:21:18.500Z,-1.82
2023-01-17T21:23:45.010Z,-1.73
2023-01-17T21:26:12.811Z,-1.87
2023-01-17T21:28:41.278Z,-1.67
2023-01-17T21:31:35.109Z,-1.76
2023-01-17T21:34:05.969Z,-1.74
2023-01-17T21:36:37.146Z,-1.77
2023-01-17T21:39:15.534Z,-1.85
2023-01-17T21:41:43.416Z,-1.92
2023-01-17T21:44:19.227Z,-1.75
2023-01-17T21:46:46.124Z,-1.94
2023-01-17T21:49:12.645Z,-1.99
2023-01-17T21:52:03.151Z,-1.87
2023-01-17T21:54:48.836Z,-1.97
2023-01-17T21:57:36.159Z,-2.17
2023-01-17T22:00:05.272Z,-1.98
2023-01-17T22:02:31.764Z,-1.84
2023-01-17T22:04:58.306Z,-1.96
2023-01-17T22:07:26.973Z,-1.85
2023-01-17T22:09:54.093Z,-1.78
2023-01-17T22:12:20.572Z,-1.90
2023-01-17T22:14:47.047Z,-1.92
2023-01-17T22:17:13.521Z,-1.95
2023-01-17T22:19:39.988Z,-2.06
2023-01-17T22:22:06.742Z,-1.93
2023-01-17T22:24:33.217Z,-2.03
2023-01-17T22:27:02.298Z,-2.08
2023-01-17T22:29:29.467Z,-2.22
2023-01-17T22:31:55.940Z,-2.04
2023-01-17T22:34:22.790Z,-2.02
2023-01-17T22:36:49.486Z,-2.03
2023-01-17T22:39:15.956Z,-2.00
2023-01-17T22:41:42.579Z,-2.07
2023-01-17T22:44:09.053Z,-2.06
2023-01-17T22:46:37.147Z,-2.18
2023-01-17T22:49:03.992Z,-2.15
2023-01-17T22:51:30.554Z,-2.11
2023-01-17T22:53:58.459Z,-2.23
2023-01-17T22:56:26.827Z,-2.21
2023-01-17T22:58:53.353Z,-2.14
2023-01-17T23:01:21.586Z,-1.86
2023-01-17T23:03:54.336Z,-2.06
2023-01-17T23:06:22.804Z,-1.86
2023-01-17T23:08:50.880Z,-2.07
2023-01-17T23:11:39.091Z,-2.24
2023-01-17T23:14:12.132Z,-2.18
2023-01-17T23:16:58.270Z,-2.23
2023-01-17T23:19:25.434Z,-2.24
2023-01-17T23:22:12.728Z,-2.24
2023-01-17T23:24:45.357Z,-2.47
2023-01-17T23:27:44.731Z,-2.49
2023-01-17T23:30:12.259Z,-2.58
2023-01-17T23:32:39.637Z,-2.62
2023-01-17T23:35:07.062Z,-2.78
2023-01-17T23:37:52.241Z,-2.68
2023-01-17T23:40:18.905Z,-2.42
2023-01-17T23:43:05.109Z,-2.46
2023-01-17T23:45:34.318Z,-2.17
2023-01-17T23:48:01.382Z,-2.27
2023-01-17T23:50:27.853Z,-2.37
2023-01-17T23:52:54.418Z,-2.20
2023-01-17T23:55:21.196Z,-2.07
2023-01-17T23:57:49.438Z,-2.11
